EST,Max TemperatureF,Mean TemperatureF,Min TemperatureF,Max Dew PointF,MeanDew PointF,Min DewpointF,Max Humidity, Mean Humidity, Min Humidity, Max Sea Level PressureIn, Mean Sea Level PressureIn, Min Sea Level PressureIn, Max VisibilityMiles, Mean VisibilityMiles, Min VisibilityMiles, Max Wind SpeedMPH, Mean Wind SpeedMPH, Max Gust SpeedMPH,PrecipitationIn, CloudCover, Events, WindDirDegrees
2012-11-1,52,46,40,38,36,34,82,69,56,29.56,29.54,29.51,10,10,10,16,9,21,T,5,,232
2012-11-2,48,44,39,38,35,31,82,70,58,29.63,29.57,29.54,10,10,10,17,9,24,T,6,Rain,280
2012-11-3,49,43,36,32,30,27,76,63,50,29.82,29.73,29.63,10,10,10,22,13,28,0.00,5,,298
2012-11-4,49,42,35,32,29,27,75,63,50,29.95,29.89,29.82,10,10,10,21,12,29,0.00,3,,317
2012-11-5,40,35,29,26,19,15,64,54,44,30.14,30.02,29.93,10,10,10,17,9,23,0.00,5,,337
2012-11-6,40,32,23,20,14,12,74,54,33,30.23,30.19,30.15,10,10,10,10,5,14,0.00,0,,359
2012-11-7,32,30,27,27,22,15,92,71,49,30.15,29.89,29.72,10,4,0,26,17,39,2.03,8,Fog-Snow,30
2012-11-8,36,33,29,32,29,27,92,84,75,29.78,29.69,29.63,10,5,0,31,20,44,0.30,8,Fog-Rain-Snow,5
2012-11-9,50,42,33,29,22,17,75,52,29,30.12,29.96,29.78,10,10,10,24,13,35,0.00,1,,308
2012-11-10,53,45,36,32,29,26,76,57,38,30.46,30.29,30.11,10,10,10,13,4,17,0.00,1,,304
2012-11-11,60,51,41,43,40,34,82,66,49,30.49,30.46,30.42,10,10,10,20,11,26,0.00,3,,214
2012-11-12,65,56,47,56,49,39,93,75,56,30.47,30.37,30.23,10,9,2,21,13,29,0.00,4,,201
2012-11-13,61,48,35,59,42,25,92,81,70,30.43,30.24,30.12,10,9,2,30,11,43,0.26,7,Rain,291
2012-11-14,44,38,32,25,22,20,69,56,43,30.54,30.49,30.41,10,10,10,14,8,21,0.00,2,,16
2012-11-15,42,36,29,26,23,21,78,62,45,30.45,30.39,30.31,10,10,10,15,6,23,0.00,0,,36
2012-11-16,45,39,33,25,23,20,75,58,41,30.43,30.33,30.29,10,10,10,13,5,17,0.00,0,,354
2012-11-17,48,40,32,28,26,22,82,60,38,30.66,30.58,30.43,10,10,10,12,4,17,0.00,0,,4
2012-11-18,45,38,31,30,26,18,85,67,49,30.71,30.67,30.62,10,10,10,9,5,14,0.00,1,,41
2012-11-19,45,39,32,32,28,20,89,74,58,30.61,30.45,30.27,10,10,10,12,5,15,0.00,1,,32
2012-11-20,48,41,34,32,28,23,96,69,42,30.25,30.18,30.14,10,10,10,9,5,12,0.00,0,,29
2012-11-21,48,43,38,35,29,21,85,67,49,30.27,30.22,30.17,10,10,10,12,6,17,0.00,3,,32
2012-11-22,53,46,39,39,36,34,92,73,54,30.28,30.22,30.13,10,10,10,10,4,12,0.00,1,,76
2012-11-23,54,46,38,42,38,33,92,69,46,30.11,29.87,29.64,10,10,10,16,10,21,0.00,2,,226
2012-11-24,46,38,29,43,26,13,92,65,38,29.66,29.60,29.55,10,10,8,33,17,51,T,6,Rain,282
2012-11-25,33,30,26,22,17,13,75,62,49,29.87,29.78,29.67,10,10,10,29,14,44,0.00,3,,266
2012-11-26,42,36,29,23,21,17,72,56,40,30.24,30.05,29.87,10,10,10,23,10,32,0.00,2,,264
2012-11-27,33,31,29,31,29,23,100,85,69,30.32,30.24,30.19,10,3,0,8,4,12,0.16,8,Fog-Snow,4
2012-11-28,35,32,28,29,24,20,92,78,64,30.20,30.17,30.12,10,10,6,17,8,22,0.00,5,,339
2012-11-29,40,33,26,24,22,18,85,63,40,30.26,30.20,30.16,10,10,10,21,11,28,0.00,1,,247
2012-11-30,35,31,27,25,9,-2,78,53,27,30.54,30.43,30.22,10,10,10,15,6,20,0.00,7,,60